Time;durP1;ratioP1;P1;durP2;ratioP2;P2;SDS_P1;SDS_P2;PMS_P1;PMS_P2;Temp;Humidity;BMP_temperature;BMP_pressure;BME280_temperature;BME280_humidity;BME280_pressure;Samples;Min_cycle;Max_cycle;Signal;HPM_P1;HPM_P2
2022/01/17 00:01:28;;;;;;;62.83;40.97;;;4.30;90.20;;;;;;5022657;28;20287;-67
2022/01/17 00:03:55;;;;;;;61.80;41.63;;;4.30;90.20;;;;;;5035927;28;20264;-67
2022/01/17 00:06:23;;;;;;;64.20;40.77;;;4.30;90.30;;;;;;5036475;28;20211;-67
2022/01/17 00:08:51;;;;;;;59.57;39.83;;;4.30;90.30;;;;;;5037895;28;20197;-67
2022/01/17 00:11:19;;;;;;;58.30;37.90;;;4.30;90.30;;;;;;5017809;28;20320;-67
2022/01/17 00:13:48;;;;;;;61.87;39.53;;;4.30;90.30;;;;;;5040125;28;20571;-67
2022/01/17 00:21:16;;;;;;;61.20;37.73;;;4.20;90.00;;;;;;5036928;28;20639;-67
2022/01/17 00:23:44;;;;;;;62.90;38.97;;;4.10;89.90;;;;;;5037332;28;20536;-67
2022/01/17 00:26:11;;;;;;;58.77;39.13;;;4.10;90.10;;;;;;5038689;28;20632;-67
2022/01/17 00:28:38;;;;;;;56.77;38.07;;;4.10;90.10;;;;;;5036959;28;20216;-67
2022/01/17 00:31:06;;;;;;;61.70;39.03;;;4.10;90.20;;;;;;5018785;28;20219;-67
2022/01/17 00:33:34;;;;;;;58.80;37.70;;;4.10;90.10;;;;;;5000300;28;20250;-67
2022/01/17 00:36:01;;;;;;;57.63;36.77;;;4.10;90.20;;;;;;5036264;28;20497;-67
2022/01/17 00:38:28;;;;;;;58.00;37.67;;;4.10;90.10;;;;;;5034645;28;20216;-67
2022/01/17 00:40:55;;;;;;;53.77;37.03;;;4.10;90.10;;;;;;5015719;28;20216;-67
2022/01/17 00:43:22;;;;;;;57.83;38.40;;;4.00;90.10;;;;;;5039798;28;20212;-67
2022/01/17 00:45:49;;;;;;;60.07;38.27;;;4.00;90.10;;;;;;5037798;28;20290;-67
2022/01/17 00:48:16;;;;;;;56.60;37.03;;;4.00;90.10;;;;;;5034817;28;20207;-67
2022/01/17 00:50:44;;;;;;;57.20;35.97;;;3.90;90.10;;;;;;5026444;28;20241;-67
2022/01/17 00:53:11;;;;;;;63.43;37.87;;;3.90;90.10;;;;;;5037560;28;20256;-67
2022/01/17 00:55:39;;;;;;;56.30;36.60;;;3.90;90.10;;;;;;5038401;28;20215;-67
2022/01/17 00:58:06;;;;;;;57.13;35.23;;;3.80;89.90;;;;;;5034720;28;20585;-67
2022/01/17 01:00:33;;;;;;;59.20;35.37;;;3.80;90.00;;;;;;5008641;28;20580;-67
2022/01/17 01:03:00;;;;;;;54.47;35.20;;;3.80;90.00;;;;;;5034725;28;20239;-67
2022/01/17 01:05:28;;;;;;;54.40;35.00;;;3.70;90.00;;;;;;5018039;28;20219;-67
2022/01/17 01:07:55;;;;;;;60.90;36.37;;;3.70;90.00;;;;;;5036463;28;20551;-67
2022/01/17 01:10:22;;;;;;;58.20;36.13;;;3.70;90.10;;;;;;5036433;28;20216;-67
2022/01/17 01:12:51;;;;;;;56.30;36.47;;;3.70;90.20;;;;;;5019258;28;20258;-68
2022/01/17 01:15:33;;;;;;;57.47;35.40;;;3.70;90.30;;;;;;5036497;28;20200;-67
2022/01/17 01:18:12;;;;;;;54.80;32.80;;;3.70;90.30;;;;;;5034239;28;20666;-67
2022/01/17 01:28:40;;;;;;;58.63;35.63;;;3.70;90.30;;;;;;5035195;28;20605;-67
2022/01/17 01:31:13;;;;;;;55.03;33.90;;;3.60;90.50;;;;;;5035399;28;20201;-67
2022/01/17 01:33:48;;;;;;;56.73;34.87;;;3.70;90.30;;;;;;5031430;28;20791;-67
2022/01/17 01:36:21;;;;;;;52.50;33.60;;;3.60;90.20;;;;;;5033449;28;20202;-67
2022/01/17 01:38:48;;;;;;;51.53;33.57;;;3.60;90.30;;;;;;5034562;28;20200;-67
2022/01/17 01:41:15;;;;;;;51.30;33.53;;;3.60;90.30;;;;;;5034747;28;20260;-67
2022/01/17 01:43:42;;;;;;;56.63;33.53;;;3.60;90.30;;;;;;5039231;28;20209;-67
2022/01/17 01:46:14;;;;;;;51.43;32.50;;;3.60;90.30;;;;;;5015974;28;20211;-67
2022/01/17 01:48:41;;;;;;;53.50;33.27;;;3.60;90.30;;;;;;5031850;28;20550;-67
2022/01/17 01:51:09;;;;;;;51.80;32.50;;;3.60;90.40;;;;;;5035713;28;20539;-67
2022/01/17 01:53:37;;;;;;;52.30;32.23;;;3.60;90.40;;;;;;5018821;28;20232;-67
2022/01/17 01:56:04;;;;;;;56.97;32.13;;;3.60;90.50;;;;;;5037526;28;20290;-67
2022/01/17 01:58:32;;;;;;;46.50;30.50;;;3.60;90.50;;;;;;5034478;28;20221;-67
2022/01/17 02:01:00;;;;;;;50.90;29.60;;;3.60;90.50;;;;;;5023934;28;20648;-67
2022/01/17 02:03:27;;;;;;;46.83;29.10;;;3.60;90.60;;;;;;5034580;28;20318;-67
2022/01/17 02:05:55;;;;;;;45.90;30.63;;;3.60;90.60;;;;;;5037762;28;20212;-67
2022/01/17 02:08:22;;;;;;;53.00;31.33;;;3.60;90.70;;;;;;5033529;28;20203;-67
2022/01/17 02:10:49;;;;;;;49.40;30.10;;;3.70;90.80;;;;;;5019114;28;20660;-67
2022/01/17 02:13:16;;;;;;;44.13;29.53;;;3.70;90.80;;;;;;5014797;28;20675;-67
2022/01/17 02:15:46;;;;;;;53.10;31.80;;;3.70;90.90;;;;;;5018933;28;20222;-67
2022/01/17 02:18:19;;;;;;;46.73;30.20;;;3.80;91.00;;;;;;5013859;28;20429;-67
2022/01/17 02:21:09;;;;;;;57.30;31.13;;;3.80;91.30;;;;;;5036037;28;20211;-67
2022/01/17 02:23:33;;;;;;;50.70;31.93;;;3.80;91.00;;;;;;5038239;28;20207;-67
2022/01/17 02:26:01;;;;;;;45.33;29.57;;;3.80;91.10;;;;;;5038800;28;20208;-67
2022/01/17 02:28:28;;;;;;;53.40;32.57;;;3.80;91.20;;;;;;5034379;28;20640;-67
2022/01/17 02:30:55;;;;;;;49.00;31.63;;;3.80;91.30;;;;;;5032887;28;20212;-67
2022/01/17 02:33:22;;;;;;;50.27;32.40;;;3.80;91.40;;;;;;5035014;28;20374;-67
2022/01/17 02:35:51;;;;;;;48.97;31.73;;;3.90;91.50;;;;;;5037964;28;20210;-67
2022/01/17 02:38:18;;;;;;;49.13;31.43;;;3.90;91.60;;;;;;5020198;28;20269;-67
2022/01/17 02:40:45;;;;;;;50.23;32.00;;;3.90;91.50;;;;;;5036783;28;20223;-67
2022/01/17 02:43:14;;;;;;;48.07;32.17;;;3.90;91.40;;;;;;5039340;28;20229;-67
2022/01/17 02:48:28;;;;;;;50.57;32.33;;;3.90;91.70;;;;;;5033915;28;20227;-67
2022/01/17 02:50:56;;;;;;;54.40;30.53;;;3.90;91.70;;;;;;5039281;28;20206;-67
2022/01/17 02:53:24;;;;;;;45.73;29.90;;;3.80;91.50;;;;;;5022660;28;20220;-67
2022/01/17 02:55:56;;;;;;;41.60;28.60;;;3.80;91.20;;;;;;5014777;28;20244;-67
2022/01/17 02:58:26;;;;;;;50.70;30.83;;;3.70;90.70;;;;;;5021459;28;20695;-67
2022/01/17 03:00:56;;;;;;;47.70;30.63;;;3.50;90.20;;;;;;5020340;28;20282;-67
2022/01/17 03:03:26;;;;;;;47.93;30.43;;;3.30;90.10;;;;;;5021054;28;20204;-67
2022/01/17 03:05:55;;;;;;;54.37;31.23;;;3.20;89.10;;;;;;5036561;28;20218;-67
2022/01/17 03:08:24;;;;;;;49.90;32.10;;;3.00;89.10;;;;;;5039973;28;20508;-67
2022/01/17 03:10:53;;;;;;;55.37;32.60;;;2.80;89.20;;;;;;5039300;28;20213;-67
2022/01/17 03:13:29;;;;;;;57.67;33.60;;;2.70;90.00;;;;;;5043326;28;20243;-67
2022/01/17 03:15:58;;;;;;;52.40;32.03;;;2.60;90.30;;;;;;5017704;28;20654;-67
2022/01/17 03:18:36;;;;;;;59.17;33.43;;;2.60;90.50;;;;;;5015488;28;20206;-67
2022/01/17 03:21:04;;;;;;;49.80;31.83;;;2.60;90.70;;;;;;5038827;28;20221;-67
2022/01/17 03:23:31;;;;;;;49.63;31.07;;;2.60;90.80;;;;;;5024287;28;20233;-67
2022/01/17 03:25:59;;;;;;;46.77;31.17;;;2.50;90.70;;;;;;5039554;28;20209;-67
2022/01/17 03:28:27;;;;;;;52.60;32.37;;;2.50;90.60;;;;;;5039599;28;20644;-66
2022/01/17 03:30:54;;;;;;;53.87;33.63;;;2.50;90.60;;;;;;5019865;28;20219;-67
2022/01/17 03:33:22;;;;;;;58.50;35.13;;;2.40;90.70;;;;;;5040153;28;20251;-67
2022/01/17 03:35:49;;;;;;;51.17;33.90;;;2.40;90.80;;;;;;5011489;28;20213;-67
2022/01/17 03:38:19;;;;;;;51.10;32.23;;;2.40;90.90;;;;;;5021040;28;20222;-67
2022/01/17 03:40:47;;;;;;;52.10;32.37;;;2.40;91.10;;;;;;5041072;28;20199;-67
2022/01/17 03:43:14;;;;;;;50.10;33.23;;;2.40;91.10;;;;;;5039638;28;20210;-67
2022/01/17 03:45:41;;;;;;;53.07;33.97;;;2.30;91.00;;;;;;5035569;28;20199;-67
2022/01/17 03:48:08;;;;;;;55.00;34.37;;;2.30;91.10;;;;;;5036601;28;20204;-67
2022/01/17 03:50:36;;;;;;;53.93;33.70;;;2.40;91.20;;;;;;5036979;28;20410;-67
2022/01/17 03:53:04;;;;;;;55.07;32.80;;;2.40;91.30;;;;;;5038009;28;20214;-67
2022/01/17 03:55:34;;;;;;;51.43;33.73;;;2.40;91.30;;;;;;5038725;28;20232;-67
2022/01/17 03:58:04;;;;;;;57.77;34.80;;;2.40;91.70;;;;;;5018751;28;20555;-67
2022/01/17 04:00:35;;;;;;;52.37;33.63;;;2.40;91.50;;;;;;5036100;28;20200;-67
2022/01/17 04:03:02;;;;;;;57.87;34.37;;;2.40;91.60;;;;;;5020553;28;20294;-67
2022/01/17 04:05:30;;;;;;;47.37;31.23;;;2.40;91.50;;;;;;5039173;28;20217;-67
2022/01/17 04:07:57;;;;;;;54.60;34.50;;;2.30;91.40;;;;;;5036422;28;20218;-67
2022/01/17 04:10:24;;;;;;;58.77;34.73;;;2.30;91.70;;;;;;5036836;28;20594;-67
2022/01/17 04:12:53;;;;;;;53.03;33.83;;;2.30;91.40;;;;;;5038512;28;20530;-67
2022/01/17 04:15:20;;;;;;;56.03;33.90;;;2.20;91.50;;;;;;5032585;28;20329;-67
2022/01/17 04:17:47;;;;;;;58.50;33.90;;;2.20;91.50;;;;;;5021436;28;20300;-67
2022/01/17 04:20:25;;;;;;;43.53;29.37;;;2.20;91.60;;;;;;5020668;28;20222;-67
2022/01/17 04:22:54;;;;;;;55.23;32.87;;;2.20;90.80;;;;;;5022803;28;20225;-67
2022/01/17 04:25:23;;;;;;;49.67;32.30;;;2.10;90.60;;;;;;5027490;28;20220;-67
2022/01/17 04:27:50;;;;;;;55.70;34.67;;;2.10;90.80;;;;;;5032422;28;20214;-67
2022/01/17 04:30:17;;;;;;;52.87;34.03;;;2.00;91.10;;;;;;5019426;28;20218;-67
2022/01/17 04:32:45;;;;;;;58.30;35.47;;;2.00;91.40;;;;;;5035460;28;20597;-67
2022/01/17 04:35:14;;;;;;;57.07;34.73;;;2.10;91.70;;;;;;5014848;28;20554;-67
2022/01/17 04:37:42;;;;;;;59.57;35.50;;;2.10;91.80;;;;;;5016914;28;20218;-67
2022/01/17 04:40:09;;;;;;;54.77;33.47;;;2.10;91.90;;;;;;5019122;28;20219;-67
2022/01/17 04:42:43;;;;;;;65.10;35.33;;;2.20;92.00;;;;;;5017425;28;20291;-67
2022/01/17 04:45:13;;;;;;;59.07;34.63;;;2.20;92.00;;;;;;4998418;28;20223;-67
2022/01/17 04:47:42;;;;;;;56.43;36.63;;;2.20;92.10;;;;;;5017583;28;20208;-67
2022/01/17 04:50:19;;;;;;;58.63;35.47;;;2.20;92.20;;;;;;5016285;28;20212;-67
2022/01/17 04:52:47;;;;;;;66.67;38.90;;;2.30;92.00;;;;;;5016899;28;20223;-67
2022/01/17 04:55:16;;;;;;;55.30;32.63;;;2.20;91.90;;;;;;5014886;28;20241;-67
2022/01/17 04:57:44;;;;;;;55.60;32.67;;;2.20;91.90;;;;;;5014253;28;20218;-67
2022/01/17 05:00:15;;;;;;;50.73;33.30;;;2.10;91.70;;;;;;5016156;28;20273;-67
2022/01/17 05:02:43;;;;;;;54.93;35.73;;;2.00;91.80;;;;;;5015023;28;20235;-67
2022/01/17 05:05:12;;;;;;;55.30;34.07;;;2.00;92.00;;;;;;5014124;28;20208;-67
2022/01/17 05:07:39;;;;;;;52.47;32.43;;;2.00;92.20;;;;;;5017592;28;20203;-67
2022/01/17 05:10:17;;;;;;;52.50;33.27;;;2.00;92.00;;;;;;5019384;28;20625;-67
2022/01/17 05:12:45;;;;;;;52.57;32.90;;;1.90;92.00;;;;;;5013878;28;20204;-67
2022/01/17 05:15:28;;;;;;;60.73;35.00;;;1.90;92.00;;;;;;5014666;28;20227;-67
2022/01/17 05:19:47;;;;;;;63.00;38.00;;;1.90;92.00;;;;;;5016476;28;20204;-67
2022/01/17 05:20:43;;;;;;;49.73;32.50;;;1.90;92.10;;;;;;5016190;28;20208;-67
2022/01/17 05:23:10;;;;;;;48.03;30.37;;;1.90;92.30;;;;;;5000049;28;20218;-67
2022/01/17 05:25:38;;;;;;;49.93;32.00;;;1.90;92.30;;;;;;5011751;28;20204;-67
2022/01/17 05:28:05;;;;;;;47.83;31.33;;;1.80;92.20;;;;;;5014557;28;20212;-67
2022/01/17 05:30:32;;;;;;;46.60;30.23;;;1.80;91.40;;;;;;5016072;28;20203;-67
2022/01/17 05:32:59;;;;;;;48.40;30.77;;;1.70;91.10;;;;;;5016952;28;20207;-67
2022/01/17 05:35:27;;;;;;;56.53;33.03;;;1.70;91.10;;;;;;5036710;28;20231;-67
2022/01/17 05:37:54;;;;;;;55.13;34.73;;;1.60;91.20;;;;;;5038298;28;20213;-67
2022/01/17 05:40:21;;;;;;;57.03;34.73;;;1.60;91.40;;;;;;5036597;28;20198;-67
2022/01/17 05:42:48;;;;;;;52.33;32.63;;;1.60;91.60;;;;;;5034930;28;20292;-67
2022/01/17 05:45:16;;;;;;;52.33;32.73;;;1.60;91.80;;;;;;5017334;28;20214;-67
2022/01/17 05:47:45;;;;;;;52.37;32.07;;;1.60;91.90;;;;;;4997305;28;20222;-68
2022/01/17 05:50:13;;;;;;;48.47;31.10;;;1.60;91.90;;;;;;5036490;28;20233;-67
2022/01/17 05:52:41;;;;;;;50.57;31.97;;;1.70;91.90;;;;;;5039895;28;20635;-67
2022/01/17 05:55:11;;;;;;;56.57;34.77;;;1.60;91.80;;;;;;5016471;28;20566;-67
2022/01/17 05:57:38;;;;;;;57.67;34.13;;;1.60;91.90;;;;;;5017328;28;20195;-68
2022/01/17 06:00:11;;;;;;;56.73;33.60;;;1.60;92.10;;;;;;5015658;28;20212;-68
2022/01/17 06:02:38;;;;;;;51.43;31.77;;;1.60;92.20;;;;;;5035491;28;20701;-67
2022/01/17 06:05:06;;;;;;;54.17;32.23;;;1.50;92.20;;;;;;5033443;28;20218;-67
2022/01/17 06:07:34;;;;;;;50.77;32.50;;;1.60;92.30;;;;;;5039300;28;20219;-67
2022/01/17 06:10:02;;;;;;;53.33;33.37;;;1.60;92.40;;;;;;5036099;28;20203;-67
2022/01/17 06:12:29;;;;;;;52.43;31.90;;;1.60;92.60;;;;;;5030949;28;20674;-67
2022/01/17 06:14:57;;;;;;;52.20;32.07;;;1.60;92.70;;;;;;5015618;28;20236;-68
2022/01/17 06:17:25;;;;;;;50.43;31.20;;;1.60;92.70;;;;;;5037310;28;20209;-68
2022/01/17 06:19:52;;;;;;;54.67;33.77;;;1.60;92.70;;;;;;5039031;28;20199;-67
2022/01/17 06:22:19;;;;;;;55.53;34.53;;;1.60;92.80;;;;;;5033521;28;20207;-68
2022/01/17 06:24:47;;;;;;;50.30;31.37;;;1.60;92.80;;;;;;5034041;28;20207;-68
2022/01/17 06:27:15;;;;;;;56.30;33.23;;;1.60;92.80;;;;;;5032847;28;20543;-68
2022/01/17 06:29:42;;;;;;;56.47;33.13;;;1.60;92.70;;;;;;5018664;28;20218;-67
2022/01/17 06:32:10;;;;;;;58.33;33.00;;;1.60;92.60;;;;;;5023588;28;20211;-67
2022/01/17 06:34:52;;;;;;;53.43;33.77;;;1.60;92.60;;;;;;5014155;28;20240;-68
2022/01/17 06:37:20;;;;;;;58.13;31.77;;;1.60;92.60;;;;;;5018880;28;20230;-67
2022/01/17 06:39:48;;;;;;;55.37;32.77;;;1.60;92.70;;;;;;5036895;28;20227;-67
2022/01/17 06:42:15;;;;;;;55.50;34.80;;;1.60;92.80;;;;;;5016706;28;20283;-67
2022/01/17 06:44:42;;;;;;;52.03;31.77;;;1.70;92.90;;;;;;5036965;28;20462;-67
2022/01/17 06:47:09;;;;;;;56.67;31.53;;;1.70;93.00;;;;;;5022282;28;20212;-67
2022/01/17 06:49:37;;;;;;;53.47;31.87;;;1.70;93.00;;;;;;5041461;28;20199;-67
2022/01/17 06:52:04;;;;;;;49.77;31.77;;;1.80;93.00;;;;;;5025770;28;20642;-67
2022/01/17 06:54:31;;;;;;;54.10;31.60;;;1.70;92.90;;;;;;5018435;28;20219;-67
2022/01/17 06:56:58;;;;;;;55.40;32.70;;;1.80;92.90;;;;;;5019575;28;20214;-67
2022/01/17 06:59:26;;;;;;;46.63;30.10;;;1.80;92.90;;;;;;5039017;28;20624;-67
2022/01/17 07:01:53;;;;;;;57.50;32.23;;;1.80;92.90;;;;;;5036379;28;20568;-67
2022/01/17 07:04:20;;;;;;;51.27;31.87;;;1.80;92.90;;;;;;5037372;28;20628;-67
2022/01/17 07:06:47;;;;;;;50.50;31.63;;;1.80;92.90;;;;;;5041880;28;20206;-67
2022/01/17 07:09:16;;;;;;;51.80;31.43;;;1.80;92.90;;;;;;5035800;28;20210;-67
2022/01/17 07:11:44;;;;;;;50.47;30.80;;;1.90;93.00;;;;;;5036494;28;20269;-67
2022/01/17 07:14:12;;;;;;;53.33;31.10;;;2.00;92.90;;;;;;5038841;28;20285;-67
2022/01/17 07:16:41;;;;;;;51.33;29.47;;;2.10;92.90;;;;;;5039896;28;20204;-67
2022/01/17 07:19:09;;;;;;;50.57;29.63;;;2.20;93.00;;;;;;5040025;28;20200;-67
2022/01/17 07:21:36;;;;;;;48.70;29.40;;;2.30;92.80;;;;;;5042625;28;20585;-67
2022/01/17 07:24:04;;;;;;;52.60;30.53;;;2.40;92.50;;;;;;5002508;28;20208;-67
2022/01/17 07:26:32;;;;;;;49.37;29.87;;;2.40;92.20;;;;;;5035606;28;20215;-67
2022/01/17 07:28:59;;;;;;;49.57;30.77;;;2.40;92.20;;;;;;5002598;28;20542;-67
2022/01/17 07:31:26;;;;;;;52.00;31.00;;;2.30;92.20;;;;;;5019995;28;20203;-67
2022/01/17 07:33:57;;;;;;;50.00;29.53;;;2.40;92.40;;;;;;5035093;28;20547;-67
2022/01/17 07:36:29;;;;;;;45.37;30.30;;;2.40;92.40;;;;;;5020890;28;20566;-67
2022/01/17 07:38:59;;;;;;;48.97;30.37;;;2.40;92.40;;;;;;5038802;28;20207;-67
2022/01/17 07:41:26;;;;;;;47.60;30.00;;;2.40;92.40;;;;;;5035709;28;20211;-67
2022/01/17 07:43:58;;;;;;;48.47;30.53;;;2.50;92.50;;;;;;5018529;28;20708;-67
2022/01/17 07:46:35;;;;;;;52.40;30.63;;;2.60;92.50;;;;;;5021738;28;20511;-67
2022/01/17 07:49:16;;;;;;;43.83;28.80;;;2.60;92.60;;;;;;5039869;28;20218;-67
2022/01/17 07:51:44;;;;;;;46.97;29.43;;;2.70;92.60;;;;;;5018261;28;20208;-67
2022/01/17 07:54:15;;;;;;;52.07;31.27;;;2.80;92.60;;;;;;5000852;28;20224;-67
2022/01/17 07:56:43;;;;;;;55.23;31.33;;;2.90;92.60;;;;;;5019608;28;20207;-67
2022/01/17 07:59:12;;;;;;;49.40;30.60;;;3.00;92.60;;;;;;5037620;28;20218;-67
2022/01/17 08:01:40;;;;;;;49.20;31.27;;;3.10;92.60;;;;;;5036797;28;20205;-67
2022/01/17 08:04:08;;;;;;;43.83;29.47;;;3.20;92.70;;;;;;5021906;28;20548;-67
2022/01/17 08:06:39;;;;;;;51.53;30.90;;;3.20;92.60;;;;;;5038343;28;20219;-67
2022/01/17 08:09:10;;;;;;;55.10;33.67;;;3.40;92.60;;;;;;5039874;28;20252;-67
2022/01/17 08:11:57;;;;;;;55.37;33.63;;;3.40;92.60;;;;;;5018570;28;20209;-67
2022/01/17 08:14:25;;;;;;;53.43;33.97;;;3.50;92.60;;;;;;5017689;28;20196;-67
2022/01/17 08:16:53;;;;;;;53.67;33.10;;;3.60;93.00;;;;;;5039379;28;20219;-67
2022/01/17 08:19:24;;;;;;;57.27;33.57;;;3.70;92.80;;;;;;5024598;28;20207;-67
2022/01/17 08:21:59;;;;;;;51.87;30.00;;;3.80;92.80;;;;;;5017234;28;20208;-67
2022/01/17 08:24:26;;;;;;;49.87;30.93;;;3.90;92.80;;;;;;5018795;28;20270;-67
2022/01/17 08:26:53;;;;;;;47.70;31.63;;;4.00;92.80;;;;;;5006587;28;20238;-67
2022/01/17 08:29:22;;;;;;;46.30;29.73;;;4.10;92.80;;;;;;5037545;28;20239;-67
2022/01/17 08:31:49;;;;;;;41.20;29.00;;;4.20;92.70;;;;;;5036483;28;20212;-67
2022/01/17 08:34:17;;;;;;;41.37;29.40;;;4.30;92.70;;;;;;5036300;28;20241;-67
2022/01/17 08:36:46;;;;;;;46.70;30.87;;;4.30;92.60;;;;;;5036122;28;20229;-67
2022/01/17 08:39:14;;;;;;;50.67;31.43;;;4.40;92.50;;;;;;5033819;28;20202;-67
2022/01/17 08:41:42;;;;;;;43.80;30.80;;;4.50;92.40;;;;;;5035254;28;20199;-67
2022/01/17 08:44:12;;;;;;;48.57;30.53;;;4.60;92.40;;;;;;5036373;28;20209;-67
2022/01/17 08:46:41;;;;;;;48.83;30.63;;;4.70;92.30;;;;;;5039412;28;20275;-66
2022/01/17 08:49:08;;;;;;;48.00;31.67;;;4.80;92.30;;;;;;5037361;28;20202;-67
2022/01/17 08:51:36;;;;;;;52.27;31.10;;;4.90;92.20;;;;;;5031518;28;20208;-67
2022/01/17 08:54:03;;;;;;;43.47;30.80;;;5.00;92.10;;;;;;5035269;28;20536;-67
2022/01/17 08:56:32;;;;;;;48.40;32.20;;;5.00;92.10;;;;;;5019176;28;20231;-71
2022/01/17 08:59:00;;;;;;;46.50;29.80;;;5.10;92.00;;;;;;5021744;28;20220;-67
2022/01/17 09:01:27;;;;;;;47.03;29.77;;;5.20;92.00;;;;;;5034500;28;20533;-67
2022/01/17 09:03:55;;;;;;;49.87;32.47;;;5.30;92.00;;;;;;5037595;28;20196;-67
2022/01/17 09:06:25;;;;;;;50.93;32.80;;;5.30;91.90;;;;;;5022334;28;20233;-67
2022/01/17 09:08:53;;;;;;;50.50;33.73;;;5.40;91.90;;;;;;5034101;28;20228;-67
2022/01/17 09:11:20;;;;;;;48.03;32.43;;;5.50;91.90;;;;;;5018411;28;20213;-67
2022/01/17 09:13:48;;;;;;;54.43;34.87;;;5.60;91.80;;;;;;5037300;28;20204;-67
2022/01/17 09:16:16;;;;;;;54.77;34.47;;;5.70;91.80;;;;;;5024448;28;20220;-67
2022/01/17 09:18:43;;;;;;;52.10;34.87;;;5.80;91.80;;;;;;5042635;28;20222;-67
2022/01/17 09:21:11;;;;;;;56.43;36.13;;;5.90;91.80;;;;;;5033768;28;20251;-67
2022/01/17 09:23:39;;;;;;;53.47;34.60;;;6.00;91.70;;;;;;5035377;28;20290;-67
2022/01/17 09:26:06;;;;;;;48.50;32.50;;;6.10;91.60;;;;;;5016276;28;20203;-67
2022/01/17 09:28:34;;;;;;;51.90;34.57;;;6.30;91.50;;;;;;5018580;28;20242;-67
2022/01/17 09:31:02;;;;;;;50.07;31.43;;;6.40;91.30;;;;;;5033384;28;20209;-67
2022/01/17 09:33:29;;;;;;;52.33;33.67;;;6.50;91.00;;;;;;5000881;28;20587;-67
2022/01/17 09:35:56;;;;;;;52.10;33.67;;;6.60;90.80;;;;;;5031641;28;20225;-67
2022/01/17 09:38:23;;;;;;;46.53;30.40;;;6.70;90.60;;;;;;5016491;28;20210;-67
2022/01/17 09:40:51;;;;;;;50.23;30.77;;;6.80;90.50;;;;;;5034022;28;20290;-68
2022/01/17 09:43:38;;;;;;;46.17;30.03;;;6.90;90.40;;;;;;5020229;28;20208;-67
2022/01/17 09:46:06;;;;;;;51.13;33.00;;;7.00;90.20;;;;;;5035641;28;20646;-67
2022/01/17 09:48:36;;;;;;;47.90;31.67;;;7.10;90.00;;;;;;5018758;28;20206;-67
2022/01/17 09:51:17;;;;;;;46.57;30.97;;;7.20;89.80;;;;;;4998867;28;20213;-67
2022/01/17 09:53:44;;;;;;;48.67;31.60;;;7.20;89.30;;;;;;5033048;28;20212;-67
2022/01/17 09:56:13;;;;;;;44.30;30.47;;;7.30;88.00;;;;;;5035013;28;20245;-67
2022/01/17 09:58:41;;;;;;;43.87;30.30;;;7.40;87.90;;;;;;5031946;28;20209;-67
2022/01/17 10:01:09;;;;;;;44.40;29.37;;;7.50;87.90;;;;;;5034378;28;20225;-67
2022/01/17 10:03:40;;;;;;;42.83;30.10;;;7.60;87.60;;;;;;5019645;28;20657;-67
2022/01/17 10:06:07;;;;;;;46.70;32.20;;;7.60;87.00;;;;;;5034157;28;20587;-67
2022/01/17 10:08:34;;;;;;;50.07;31.90;;;7.60;86.90;;;;;;5033300;28;20217;-67
2022/01/17 10:11:02;;;;;;;45.27;30.47;;;7.70;87.00;;;;;;5034929;28;20205;-67
2022/01/17 10:13:37;;;;;;;47.23;30.23;;;7.80;86.80;;;;;;5035084;28;20233;-67
2022/01/17 10:16:08;;;;;;;40.77;30.87;;;7.90;86.60;;;;;;5018113;28;20629;-67
2022/01/17 10:19:01;;;;;;;44.60;30.10;;;8.10;86.40;;;;;;5042259;28;20213;-67
2022/01/17 10:21:47;;;;;;;43.97;30.73;;;8.10;86.30;;;;;;5037029;28;20228;-67
2022/01/17 10:27:08;;;;;;;40.07;28.27;;;8.30;85.50;;;;;;5035761;28;20220;-68
2022/01/17 10:35:25;;;;;;;42.33;27.40;;;8.60;85.10;;;;;;5036529;28;20253;-69
2022/01/17 10:37:55;;;;;;;43.33;27.17;;;8.70;84.20;;;;;;5019795;28;20226;-68
2022/01/17 10:40:22;;;;;;;42.33;26.40;;;8.80;83.10;;;;;;5038562;28;20224;-67
2022/01/17 10:42:50;;;;;;;38.70;25.13;;;8.90;82.50;;;;;;5039938;28;20199;-67
2022/01/17 10:45:24;;;;;;;38.43;26.53;;;8.90;81.90;;;;;;5019268;28;20213;-68
2022/01/17 10:47:53;;;;;;;35.50;23.47;;;9.00;81.10;;;;;;5023137;28;20195;-68
2022/01/17 10:50:25;;;;;;;33.93;23.03;;;9.10;81.00;;;;;;5036914;28;20196;-68
2022/01/17 10:53:01;;;;;;;35.20;23.63;;;9.20;80.80;;;;;;5021647;28;20226;-68
2022/01/17 10:55:37;;;;;;;35.73;24.30;;;9.30;80.60;;;;;;5037898;28;20567;-68
2022/01/17 10:58:13;;;;;;;34.37;23.97;;;9.40;79.10;;;;;;5038417;28;20211;-68
2022/01/17 11:00:46;;;;;;;32.37;22.63;;;9.50;79.40;;;;;;5036471;28;20201;-68
2022/01/17 11:03:19;;;;;;;34.40;22.60;;;9.70;79.60;;;;;;5004206;28;20269;-68
2022/01/17 11:05:49;;;;;;;35.53;22.77;;;9.80;79.00;;;;;;5036925;28;20211;-68
2022/01/17 11:08:19;;;;;;;33.10;23.77;;;9.90;79.00;;;;;;5019051;28;20670;-68
2022/01/17 11:10:53;;;;;;;28.33;20.73;;;10.00;78.90;;;;;;5021004;28;20231;-68
2022/01/17 11:13:22;;;;;;;28.07;21.80;;;10.20;78.30;;;;;;5038121;28;20203;-68
2022/01/17 11:16:04;;;;;;;31.50;22.77;;;10.30;77.90;;;;;;5040813;28;20231;-68
2022/01/17 11:18:31;;;;;;;30.83;21.17;;;10.40;77.70;;;;;;5037511;28;20234;-68
2022/01/17 11:21:10;;;;;;;30.90;20.93;;;10.60;77.40;;;;;;5035874;28;20204;-68
2022/01/17 11:23:43;;;;;;;31.83;20.33;;;10.70;77.30;;;;;;5036869;28;20537;-68
2022/01/17 11:26:12;;;;;;;31.80;18.43;;;10.80;77.00;;;;;;5016385;28;20416;-68
2022/01/17 11:28:40;;;;;;;33.13;16.20;;;10.90;75.80;;;;;;5018877;28;20213;-68
2022/01/17 11:31:12;;;;;;;22.63;15.10;;;11.10;73.70;;;;;;5018372;28;20218;-68
2022/01/17 11:33:40;;;;;;;24.40;16.33;;;11.10;71.60;;;;;;5020696;28;20734;-68
2022/01/17 11:36:07;;;;;;;22.10;15.73;;;11.20;70.50;;;;;;5035600;28;20231;-68
2022/01/17 11:38:40;;;;;;;23.93;16.87;;;11.20;70.20;;;;;;5035606;28;20220;-68
2022/01/17 11:41:25;;;;;;;24.33;13.93;;;11.30;70.30;;;;;;5037970;28;20204;-68
2022/01/17 11:44:04;;;;;;;24.73;16.43;;;11.40;68.70;;;;;;4999645;28;20215;-68
2022/01/17 11:46:35;;;;;;;23.50;16.60;;;11.40;68.40;;;;;;5011739;28;20268;-68
2022/01/17 11:49:04;;;;;;;21.67;15.30;;;11.50;69.30;;;;;;5035630;28;20205;-68
2022/01/17 11:51:44;;;;;;;24.43;15.83;;;11.50;70.00;;;;;;5017275;28;20301;-68
2022/01/17 11:54:19;;;;;;;21.87;15.33;;;11.60;70.00;;;;;;5037953;28;20204;-69
2022/01/17 11:56:48;;;;;;;21.90;16.00;;;11.70;69.50;;;;;;5017406;28;20829;-68
2022/01/17 11:59:46;;;;;;;20.00;16.17;;;11.80;69.50;;;;;;5036383;28;20216;-68
2022/01/17 12:02:29;;;;;;;23.13;15.90;;;12.00;69.60;;;;;;5036553;28;20525;-68
2022/01/17 12:05:10;;;;;;;21.97;14.30;;;12.10;68.90;;;;;;4999016;28;20529;-68
2022/01/17 12:07:43;;;;;;;23.50;13.50;;;12.20;68.10;;;;;;5035285;28;20290;-68
2022/01/17 12:10:14;;;;;;;22.60;14.03;;;12.20;68.50;;;;;;5018524;28;20636;-68
2022/01/17 12:12:42;;;;;;;22.83;15.23;;;12.40;67.30;;;;;;5018228;28;20209;-69
2022/01/17 12:15:16;;;;;;;19.10;13.53;;;12.40;67.20;;;;;;5037588;28;20234;-68
2022/01/17 12:17:44;;;;;;;21.23;13.80;;;12.50;65.80;;;;;;5017436;28;20221;-68
2022/01/17 12:20:17;;;;;;;18.73;12.00;;;12.50;65.40;;;;;;5034418;28;20291;-68
2022/01/17 12:22:47;;;;;;;19.47;13.10;;;12.60;65.90;;;;;;5038300;28;20210;-68
2022/01/17 12:25:30;;;;;;;20.30;13.17;;;12.60;65.10;;;;;;5019213;28;20208;-68
2022/01/17 12:28:03;;;;;;;19.63;13.50;;;12.70;65.30;;;;;;5033327;28;20201;-68
2022/01/17 12:30:40;;;;;;;17.43;10.93;;;12.80;65.50;;;;;;5035921;28;20655;-68
2022/01/17 12:33:31;;;;;;;14.47;10.57;;;12.90;65.00;;;;;;5031646;28;20210;-68
2022/01/17 12:36:02;;;;;;;18.27;11.80;;;13.00;64.80;;;;;;5004247;28;20248;-68
2022/01/17 12:38:41;;;;;;;17.67;11.43;;;13.00;62.80;;;;;;5018076;28;20507;-68
2022/01/17 12:41:35;;;;;;;17.77;9.53;;;13.10;62.70;;;;;;5037282;28;20204;-68
2022/01/17 12:44:22;;;;;;;25.57;11.17;;;13.10;62.70;;;;;;5034899;28;20202;-68
2022/01/17 12:46:52;;;;;;;18.07;10.97;;;13.10;61.40;;;;;;5010942;28;20628;-68
2022/01/17 12:49:20;;;;;;;16.67;10.93;;;13.20;61.50;;;;;;5034474;28;20293;-68
2022/01/17 12:51:50;;;;;;;15.10;10.43;;;13.20;61.70;;;;;;5018658;28;20206;-68
2022/01/17 12:54:20;;;;;;;16.80;10.63;;;13.20;61.00;;;;;;5004048;28;20219;-69
2022/01/17 12:56:51;;;;;;;16.83;10.50;;;13.20;60.70;;;;;;5032837;28;20249;-69
2022/01/17 12:59:19;;;;;;;17.57;10.67;;;13.30;59.90;;;;;;5015917;28;20204;-69
2022/01/17 13:01:48;;;;;;;15.60;10.57;;;13.30;59.10;;;;;;5036325;28;20195;-69
2022/01/17 13:04:16;;;;;;;17.33;11.10;;;13.30;60.20;;;;;;5016427;28;20641;-69
2022/01/17 13:06:46;;;;;;;17.83;10.57;;;13.30;59.50;;;;;;5034870;28;20201;-69
2022/01/17 13:09:15;;;;;;;17.70;12.13;;;13.30;58.60;;;;;;5032096;28;20218;-69
2022/01/17 13:11:45;;;;;;;19.53;11.43;;;13.20;58.20;;;;;;5019547;28;20234;-69
2022/01/17 13:14:17;;;;;;;17.47;10.80;;;13.20;58.60;;;;;;5040391;28;20213;-69